Hlavní strana
METAR-TAF:

METAR-TAF

Letiště :

Bogotá, Kolumbie

zeměpisná šířka: 04-43N, zeměpisná délka: 074-09W, výška: 2547 m

Aktuální stav počasí

Zpráva byla vytvořena před 1 hodinou a 9 minutami, v 22:00 UTC
Východoseverovýchodní vítr 7 kt
Teplota 19°C
Vlhkost vzduchu 52%
Tlak 1026 hPa
Viditelnost 10 km a více
Polojasno ve výšce 2000 ft
Polojasno ve výšce 8000 ft

METAR: SKBO 072200Z 07007KT 9999 SCT020 SCT080 19/09 A3031 NOSIG

Čas: 18:09 (23:09 UTC)

Předpověď počasí

Zpráva byla vytvořena před 6 hodinami a 39 minutami, v 16:30 UTC
Předpověď platná od 07 v 18 UTC do 08 v 18 UTC
Jihozápadní vítr 10 kt
Viditelnost 10 km a více
Polojasno ve výšce 2000 ft
Oblačno až skoro zataženo ve výšce 8000 ft
Dočasný
od 07 v 19 UTC do 07 v 22 UTC
Polojasno ve výšce 1700 ft, Vertikální cumulus.
mrholení
Změna
od 08 v 00 UTC do 08 v 02 UTC
Severovýchodní vítr 4 kt

TAF: SKBO 071630Z 0718/0818 23010KT 9999 SCT020 BKN080 TEMPO 0719/0722 DZ SCT017TCU BECMG 0800/0802 05004KT TX20/0718Z TN11/0810Z

Stav a předpovědi počasí z více než 4 000 letišť (zprávy METAR a TAF).

Červené a žluté tečky na mapě představují dostupné meteorologické stanice.

Když kurzor umístíte na tečku, zobrazí se název stanice.

Pak kliknutím zobrazíte stav a předpověď počasí.

Chcete-li změnit mapu, kliknutím na zelené tlačítko se znaménkem +mapu přiblížíte, kliknutím na zelené tlačítko se znaménkem – mapu oddálíte a kliknutím na zelené šipky přejdete na sousední mapy.


METAR-TAF: